Station Historical Data
Daily Summary for January 14, 2017 Units:  English    Metric   Both
« Previous Day
Next Day »
Daily Weekly Monthly Yearly Custom
  High: Low: Average:
Temperature: 29.3 °F 19.5 °F 24 °F
Dew Point: 20.7 °F 14.8 °F 17.3 °F
Humidity: 84% 65% 75%
Wind Speed: 7.0mph 0.0mph 1.5mph
Wind Gust: 10.0mph - -
Wind- - ESE
Pressure: 30.76 in 30.38 in -
Precipitation: 0.00 in    
Historical Graphs
 
 
Tabular Data for January 14, 2017
Time Temperature Dew Point Pressure Wind Wind Speed Wind Gust Humidity Rainfall Rate (Hourly)
00:04 22.2 °F 16.1 °F 30.76 in NE 5.0 mph 10.0 mph 77% 0.00 in
00:09 22.1 °F 16.0 °F 30.76 in NE 5.0 mph 10.0 mph 77% 0.00 in
00:14 22.0 °F 15.9 °F 30.76 in NE 4.0 mph 9.0 mph 77% 0.00 in
00:19 21.9 °F 15.8 °F 30.76 in NE 4.0 mph 9.0 mph 77% 0.00 in
00:24 22.0 °F 15.9 °F 30.76 in NE 3.0 mph 8.0 mph 77% 0.00 in
00:29 22.0 °F 15.9 °F 30.76 in ENE 4.0 mph 8.0 mph 77% 0.00 in
00:34 22.0 °F 15.9 °F 30.75 in NE 2.0 mph 7.0 mph 77% 0.00 in
00:39 21.9 °F 15.8 °F 30.76 in ENE 3.0 mph 8.0 mph 77% 0.00 in
00:44 21.8 °F 15.7 °F 30.76 in NE 3.0 mph 7.0 mph 77% 0.00 in
00:49 21.7 °F 15.6 °F 30.75 in ENE 4.0 mph 8.0 mph 77% 0.00 in
00:54 21.7 °F 15.6 °F 30.75 in NE 5.0 mph 8.0 mph 77% 0.00 in
00:59 21.6 °F 15.5 °F 30.75 in ENE 4.0 mph 8.0 mph 77% 0.00 in
01:04 21.7 °F 15.9 °F 30.75 in NE 7.0 mph 8.0 mph 78% 0.00 in
01:09 21.6 °F 15.5 °F 30.75 in NE 4.0 mph 9.0 mph 77% 0.00 in
01:14 21.5 °F 15.4 °F 30.74 in NE 5.0 mph 9.0 mph 77% 0.00 in
01:19 21.5 °F 15.7 °F 30.74 in NE 5.0 mph 9.0 mph 78% 0.00 in
01:24 21.4 °F 15.6 °F 30.74 in NE 5.0 mph 9.0 mph 78% 0.00 in
01:29 21.4 °F 15.6 °F 30.74 in NE 5.0 mph 8.0 mph 78% 0.00 in
01:34 21.4 °F 15.6 °F 30.74 in NE 2.0 mph 7.0 mph 78% 0.00 in
01:39 21.4 °F 15.6 °F 30.74 in NE 3.0 mph 9.0 mph 78% 0.00 in
01:44 21.4 °F 15.6 °F 30.74 in NNE 5.0 mph 9.0 mph 78% 0.00 in
01:49 21.4 °F 15.9 °F 30.74 in ENE 7.0 mph 7.0 mph 79% 0.00 in
01:54 21.4 °F 15.6 °F 30.74 in NE 4.0 mph 8.0 mph 78% 0.00 in
01:59 21.4 °F 15.9 °F 30.74 in NE 3.0 mph 8.0 mph 79% 0.00 in
02:04 21.3 °F 15.5 °F 30.74 in NE 3.0 mph 8.0 mph 78% 0.00 in
02:09 21.2 °F 15.4 °F 30.74 in NE 4.0 mph 8.0 mph 78% 0.00 in
02:14 21.1 °F 15.6 °F 30.73 in ENE 3.0 mph 8.0 mph 79% 0.00 in
02:19 21.0 °F 15.8 °F 30.73 in ENE 5.0 mph 7.0 mph 80% 0.00 in
02:24 20.9 °F 15.7 °F 30.73 in East 5.0 mph 7.0 mph 80% 0.00 in
02:29 20.7 °F 15.2 °F 30.73 in NE 4.0 mph 10.0 mph 79% 0.00 in
02:34 20.6 °F 14.8 °F 30.72 in ENE 2.0 mph 9.0 mph 78% 0.00 in
02:39 20.6 °F 14.8 °F 30.72 in NE 4.0 mph 9.0 mph 78% 0.00 in
02:44 20.6 °F 14.8 °F 30.72 in ENE 3.0 mph 8.0 mph 78% 0.00 in
02:49 20.5 °F 15.0 °F 30.72 in ENE 5.0 mph 9.0 mph 79% 0.00 in
02:54 20.5 °F 15.0 °F 30.72 in NE 4.0 mph 8.0 mph 79% 0.00 in
02:59 20.4 °F 14.9 °F 30.72 in NE 3.0 mph 8.0 mph 79% 0.00 in
03:04 20.3 °F 14.8 °F 30.72 in NE 3.0 mph 8.0 mph 79% 0.00 in
03:09 20.3 °F 15.1 °F 30.72 in NE 2.0 mph 8.0 mph 80% 0.00 in
03:14 20.3 °F 15.1 °F 30.71 in NE 3.0 mph 5.0 mph 80% 0.00 in
03:19 20.2 °F 15.0 °F 30.71 in NE 4.0 mph 5.0 mph 80% 0.00 in
03:24 20.2 °F 15.0 °F 30.71 in NE 2.0 mph 5.0 mph 80% 0.00 in
03:29 20.2 °F 15.0 °F 30.71 in NE 2.0 mph 6.0 mph 80% 0.00 in
03:34 20.2 °F 15.0 °F 30.70 in NE 3.0 mph 6.0 mph 80% 0.00 in
03:39 20.1 °F 14.9 °F 30.70 in NE 3.0 mph 6.0 mph 80% 0.00 in
03:44 20.0 °F 14.8 °F 30.70 in NE 3.0 mph 5.0 mph 80% 0.00 in
03:49 20.0 °F 14.8 °F 30.70 in NE 3.0 mph 5.0 mph 80% 0.00 in
03:54 19.9 °F 15.0 °F 30.70 in NE 2.0 mph 5.0 mph 81% 0.00 in
03:59 19.9 °F 15.0 °F 30.69 in NE 1.0 mph 4.0 mph 81% 0.00 in
04:04 19.8 °F 14.9 °F 30.69 in NE 2.0 mph 4.0 mph 81% 0.00 in
04:09 19.7 °F 15.1 °F 30.69 in NE 2.0 mph 4.0 mph 82% 0.00 in
04:14 19.8 °F 15.2 °F 30.69 in ENE 3.0 mph 4.0 mph 82% 0.00 in
04:19 19.8 °F 15.2 °F 30.69 in NE 3.0 mph 5.0 mph 82% 0.00 in
04:24 19.8 °F 15.2 °F 30.69 in NE 2.0 mph 5.0 mph 82% 0.00 in
04:29 19.8 °F 15.2 °F 30.69 in NE 2.0 mph 3.0 mph 82% 0.00 in
04:34 19.8 °F 15.2 °F 30.68 in NE 1.0 mph 3.0 mph 82% 0.00 in
04:39 19.8 °F 15.2 °F 30.68 in NE 2.0 mph 4.0 mph 82% 0.00 in
04:44 19.8 °F 15.2 °F 30.68 in NE 2.0 mph 4.0 mph 82% 0.00 in
04:49 19.8 °F 15.2 °F 30.68 in NE 2.0 mph 4.0 mph 82% 0.00 in
04:54 19.7 °F 15.1 °F 30.68 in NE 2.0 mph 4.0 mph 82% 0.00 in
04:59 19.8 °F 15.2 °F 30.67 in Calm   4.0 mph 82% 0.00 in
05:04 19.8 °F 15.2 °F 30.67 in NE 1.0 mph 4.0 mph 82% 0.00 in
05:09 19.8 °F 15.2 °F 30.67 in ENE 2.0 mph 4.0 mph 82% 0.00 in
05:14 19.8 °F 15.2 °F 30.67 in NE 2.0 mph 4.0 mph 82% 0.00 in
05:19 19.8 °F 15.2 °F 30.67 in NE 2.0 mph 3.0 mph 82% 0.00 in
05:24 19.8 °F 15.2 °F 30.67 in NE 2.0 mph 4.0 mph 82% 0.00 in
05:29 19.7 °F 15.1 °F 30.67 in NE 2.0 mph 3.0 mph 82% 0.00 in
05:34 19.6 °F 15.0 °F 30.67 in Calm   3.0 mph 82% 0.00 in
05:39 19.5 °F 14.9 °F 30.67 in NE 1.0 mph 3.0 mph 82% 0.00 in
05:44 19.6 °F 15.0 °F 30.67 in Calm   4.0 mph 82% 0.00 in
05:49 19.6 °F 15.0 °F 30.66 in NE 1.0 mph 4.0 mph 82% 0.00 in
05:54 19.6 °F 15.0 °F 30.66 in NE 1.0 mph 4.0 mph 82% 0.00 in
05:59 19.7 °F 15.1 °F 30.66 in NE 2.0 mph 5.0 mph 82% 0.00 in
06:04 19.6 °F 15.0 °F 30.66 in NE 2.0 mph 3.0 mph 82% 0.00 in
06:09 19.5 °F 14.9 °F 30.66 in NE 1.0 mph 3.0 mph 82% 0.00 in
06:14 19.5 °F 14.9 °F 30.66 in Calm     82% 0.00 in
06:19 19.6 °F 15.3 °F 30.66 in Calm   3.0 mph 83% 0.00 in
06:24 19.7 °F 15.1 °F 30.66 in Calm   3.0 mph 82% 0.00 in
06:29 19.9 °F 15.3 °F 30.65 in Calm   1.0 mph 82% 0.00 in
06:34 20.2 °F 15.3 °F 30.64 in ENE 4.0 mph 5.0 mph 81% 0.00 in
06:39 20.4 °F 15.5 °F 30.64 in East 2.0 mph 6.0 mph 81% 0.00 in
06:44 20.5 °F 15.3 °F 30.64 in ENE 2.0 mph 7.0 mph 80% 0.00 in
06:49 20.6 °F 15.4 °F 30.64 in East 1.0 mph 7.0 mph 80% 0.00 in
06:54 20.6 °F 15.1 °F 30.64 in East 2.0 mph 6.0 mph 79% 0.00 in
06:59 20.8 °F 15.3 °F 30.63 in ENE 2.0 mph 6.0 mph 79% 0.00 in
07:04 20.8 °F 15.3 °F 30.64 in NE 2.0 mph 6.0 mph 79% 0.00 in
07:09 20.9 °F 15.4 °F 30.63 in NE 4.0 mph 8.0 mph 79% 0.00 in
07:14 21.0 °F 15.5 °F 30.63 in NE 1.0 mph 5.0 mph 79% 0.00 in
07:19 21.1 °F 15.6 °F 30.63 in ENE 2.0 mph 6.0 mph 79% 0.00 in
07:24 21.2 °F 15.7 °F 30.62 in East 3.0 mph 4.0 mph 79% 0.00 in
07:29 21.2 °F 15.7 °F 30.62 in ESE 2.0 mph 7.0 mph 79% 0.00 in
07:34 21.4 °F 15.9 °F 30.62 in NE 1.0 mph 3.0 mph 79% 0.00 in
07:39 21.5 °F 16.0 °F 30.62 in NE 3.0 mph 5.0 mph 79% 0.00 in
07:44 21.5 °F 15.7 °F 30.62 in ENE 1.0 mph 4.0 mph 78% 0.00 in
07:49 21.6 °F 16.1 °F 30.62 in ENE 2.0 mph 4.0 mph 79% 0.00 in
07:54 21.7 °F 15.9 °F 30.62 in ENE 2.0 mph 5.0 mph 78% 0.00 in
07:59 21.7 °F 15.9 °F 30.62 in ENE 2.0 mph 5.0 mph 78% 0.00 in
08:04 21.8 °F 16.0 °F 30.61 in ENE 2.0 mph 5.0 mph 78% 0.00 in
08:09 21.9 °F 16.1 °F 30.61 in NE 2.0 mph 5.0 mph 78% 0.00 in
08:14 21.9 °F 16.1 °F 30.61 in NE 1.0 mph 4.0 mph 78% 0.00 in
08:19 22.1 °F 16.3 °F 30.61 in Calm   3.0 mph 78% 0.00 in
08:24 22.2 °F 16.4 °F 30.62 in ENE 1.0 mph 4.0 mph 78% 0.00 in
08:29 22.2 °F 16.4 °F 30.61 in ENE 1.0 mph 5.0 mph 78% 0.00 in
08:34 22.4 °F 16.6 °F 30.61 in ENE 2.0 mph 6.0 mph 78% 0.00 in
08:39 22.5 °F 16.7 °F 30.60 in ENE 2.0 mph 5.0 mph 78% 0.00 in
08:44 22.7 °F 16.6 °F 30.60 in East 1.0 mph 5.0 mph 77% 0.00 in
08:49 22.7 °F 16.6 °F 30.60 in ENE 1.0 mph 5.0 mph 77% 0.00 in
08:54 22.9 °F 16.8 °F 30.60 in ENE 2.0 mph 5.0 mph 77% 0.00 in
08:59 22.9 °F 16.8 °F 30.60 in ENE 2.0 mph 5.0 mph 77% 0.00 in
09:04 23.1 °F 17.0 °F 30.60 in ENE 2.0 mph 5.0 mph 77% 0.00 in
09:09 23.2 °F 17.1 °F 30.60 in ENE 2.0 mph 4.0 mph 77% 0.00 in
09:14 23.4 °F 17.3 °F 30.59 in ENE 1.0 mph 4.0 mph 77% 0.00 in
09:19 23.5 °F 17.0 °F 30.59 in NE 3.0 mph 4.0 mph 76% 0.00 in
09:24 23.7 °F 17.2 °F 30.59 in NE 1.0 mph 5.0 mph 76% 0.00 in
09:29 23.7 °F 17.2 °F 30.59 in NE 2.0 mph 5.0 mph 76% 0.00 in
09:34 23.8 °F 17.3 °F 30.58 in ENE 1.0 mph 6.0 mph 76% 0.00 in
09:39 24.0 °F 17.2 °F 30.58 in NE 2.0 mph 7.0 mph 75% 0.00 in
09:44 24.0 °F 17.2 °F 30.58 in NNE 6.0 mph 6.0 mph 75% 0.00 in
09:49 24.3 °F 17.5 °F 30.58 in NE 2.0 mph 6.0 mph 75% 0.00 in
09:54 24.4 °F 17.6 °F 30.58 in ENE 1.0 mph 4.0 mph 75% 0.00 in
09:59 24.6 °F 17.5 °F 30.58 in NE 2.0 mph 5.0 mph 74% 0.00 in
10:04 24.6 °F 17.5 °F 30.58 in NE 3.0 mph 6.0 mph 74% 0.00 in
10:09 24.8 °F 17.4 °F 30.58 in NE 3.0 mph 6.0 mph 73% 0.00 in
10:14 25.0 °F 17.6 °F 30.57 in NE 2.0 mph 5.0 mph 73% 0.00 in
10:19 25.1 °F 17.7 °F 30.57 in NE 2.0 mph 5.0 mph 73% 0.00 in
10:24 25.3 °F 17.9 °F 30.57 in ENE 1.0 mph 4.0 mph 73% 0.00 in
10:29 25.4 °F 17.9 °F 30.57 in NE 1.0 mph 6.0 mph 73% 0.00 in
10:34 25.4 °F 17.6 °F 30.56 in Calm   5.0 mph 72% 0.00 in
10:39 25.6 °F 17.5 °F 30.56 in Calm   3.0 mph 71% 0.00 in
10:44 25.6 °F 17.8 °F 30.56 in Calm   3.0 mph 72% 0.00 in
10:49 25.7 °F 17.9 °F 30.56 in NNE 1.0 mph 3.0 mph 72% 0.00 in
10:54 25.7 °F 17.9 °F 30.56 in NE 2.0 mph 4.0 mph 72% 0.00 in
10:59 25.7 °F 17.6 °F 30.55 in NE 2.0 mph 4.0 mph 71% 0.00 in
11:04 25.8 °F 17.7 °F 30.55 in NE 2.0 mph 4.0 mph 71% 0.00 in
11:09 25.8 °F 17.7 °F 30.54 in NE 2.0 mph 4.0 mph 71% 0.00 in
11:14 26.0 °F 18.2 °F 30.54 in NE 2.0 mph 5.0 mph 72% 0.00 in
11:19 25.9 °F 17.5 °F 30.53 in NE 2.0 mph 5.0 mph 70% 0.00 in
11:24 26.3 °F 17.8 °F 30.53 in NE 1.0 mph 3.0 mph 70% 0.00 in
11:29 26.4 °F 17.9 °F 30.52 in ENE 3.0 mph 3.0 mph 70% 0.00 in
11:34 26.6 °F 18.1 °F 30.52 in East 1.0 mph 3.0 mph 70% 0.00 in
11:39 26.9 °F 18.4 °F 30.51 in ENE 1.0 mph 3.0 mph 70% 0.00 in
11:44 27.2 °F 18.7 °F 30.51 in NE 1.0 mph 3.0 mph 70% 0.00 in
11:49 27.3 °F 18.5 °F 30.50 in NE 2.0 mph 4.0 mph 69% 0.00 in
11:54 27.1 °F 18.6 °F 30.50 in ESE 1.0 mph 5.0 mph 70% 0.00 in
11:59 26.7 °F 17.9 °F 30.50 in Calm   3.0 mph 69% 0.00 in
12:04 26.7 °F 17.9 °F 30.49 in NE 1.0 mph 3.0 mph 69% 0.00 in
12:09 26.9 °F 18.4 °F 30.50 in NE 1.0 mph 3.0 mph 70% 0.00 in
12:14 26.9 °F 18.7 °F 30.49 in East 1.0 mph 3.0 mph 71% 0.00 in
12:19 26.9 °F 18.1 °F 30.49 in SE 1.0 mph 3.0 mph 69% 0.00 in
12:24 26.8 °F 18.0 °F 30.49 in ENE 1.0 mph 3.0 mph 69% 0.00 in
12:29 27.1 °F 18.3 °F 30.48 in NE 2.0 mph 2.0 mph 69% 0.00 in
12:34 26.8 °F 18.0 °F 30.48 in Calm   2.0 mph 69% 0.00 in
12:39 26.9 °F 18.1 °F 30.47 in Calm     69% 0.00 in
12:44 27.1 °F 18.6 °F 30.47 in Calm   2.0 mph 70% 0.00 in
12:49 26.9 °F 17.7 °F 30.46 in Calm   2.0 mph 68% 0.00 in
12:54 27.0 °F 18.5 °F 30.46 in Calm   2.0 mph 70% 0.00 in
12:59 27.2 °F 18.7 °F 30.45 in Calm     70% 0.00 in
13:04 27.2 °F 18.4 °F 30.45 in Calm   2.0 mph 69% 0.00 in
13:09 27.2 °F 18.4 °F 30.45 in Calm   2.0 mph 69% 0.00 in
13:14 27.2 °F 18.0 °F 30.45 in Calm   2.0 mph 68% 0.00 in
13:19 27.6 °F 19.1 °F 30.45 in Calm     70% 0.00 in
13:24 27.6 °F 18.8 °F 30.45 in Calm     69% 0.00 in
13:29 27.7 °F 18.5 °F 30.45 in Calm     68% 0.00 in
13:34 27.7 °F 18.5 °F 30.45 in Calm     68% 0.00 in
13:39 28.0 °F 18.8 °F 30.45 in Calm   3.0 mph 68% 0.00 in
13:44 28.2 °F 19.0 °F 30.45 in Calm   3.0 mph 68% 0.00 in
13:49 28.1 °F 18.5 °F 30.44 in Calm   2.0 mph 67% 0.00 in
13:54 27.9 °F 18.7 °F 30.44 in WSW 1.0 mph 1.0 mph 68% 0.00 in
13:59 27.9 °F 18.4 °F 30.44 in WSW 1.0 mph 2.0 mph 67% 0.00 in
14:04 28.0 °F 18.5 °F 30.43 in WSW 1.0 mph 2.0 mph 67% 0.00 in
14:09 28.1 °F 18.9 °F 30.43 in SSE 2.0 mph 3.0 mph 68% 0.00 in
14:14 28.2 °F 18.6 °F 30.42 in South 2.0 mph 4.0 mph 67% 0.00 in
14:19 28.3 °F 18.4 °F 30.42 in South 1.0 mph 4.0 mph 66% 0.00 in
14:24 28.4 °F 18.8 °F 30.42 in Calm   1.0 mph 67% 0.00 in
14:29 28.5 °F 19.3 °F 30.42 in Calm   1.0 mph 68% 0.00 in
14:34 28.7 °F 19.1 °F 30.42 in Calm   2.0 mph 67% 0.00 in
14:39 28.6 °F 18.3 °F 30.41 in SW 1.0 mph 3.0 mph 65% 0.00 in
14:44 28.7 °F 18.8 °F 30.41 in SW 2.0 mph 3.0 mph 66% 0.00 in
14:49 28.6 °F 18.7 °F 30.41 in SW 1.0 mph 3.0 mph 66% 0.00 in
14:54 28.7 °F 18.8 °F 30.42 in WSW 1.0 mph 3.0 mph 66% 0.00 in
14:59 28.7 °F 18.8 °F 30.41 in WSW 1.0 mph 3.0 mph 66% 0.00 in
15:04 28.6 °F 19.0 °F 30.41 in WSW 1.0 mph 3.0 mph 67% 0.00 in
15:09 28.7 °F 18.8 °F 30.40 in Calm   3.0 mph 66% 0.00 in
15:14 28.7 °F 19.1 °F 30.40 in Calm     67% 0.00 in
15:19 28.7 °F 18.8 °F 30.40 in Calm     66% 0.00 in
15:24 28.7 °F 18.8 °F 30.39 in Calm     66% 0.00 in
15:29 28.8 °F 19.2 °F 30.39 in Calm     67% 0.00 in
15:34 28.8 °F 19.2 °F 30.39 in Calm     67% 0.00 in
15:39 28.9 °F 19.3 °F 30.39 in Calm     67% 0.00 in
15:44 28.8 °F 18.9 °F 30.39 in Calm     66% 0.00 in
15:49 28.8 °F 19.2 °F 30.39 in Calm     67% 0.00 in
15:54 28.8 °F 19.2 °F 30.39 in Calm     67% 0.00 in
15:59 29.0 °F 19.4 °F 30.39 in Calm     67% 0.00 in
16:04 29.0 °F 19.4 °F 30.39 in Calm     67% 0.00 in
16:09 29.0 °F 19.4 °F 30.39 in Calm     67% 0.00 in
16:14 29.0 °F 19.4 °F 30.39 in Calm     67% 0.00 in
16:19 29.0 °F 19.4 °F 30.39 in Calm     67% 0.00 in
16:24 29.0 °F 19.4 °F 30.39 in Calm     67% 0.00 in
16:29 29.0 °F 19.4 °F 30.39 in Calm     67% 0.00 in
16:34 29.1 °F 19.2 °F 30.39 in WSW 3.0 mph 4.0 mph 66% 0.00 in
16:39 29.2 °F 19.6 °F 30.39 in West 1.0 mph 3.0 mph 67% 0.00 in
16:44 29.3 °F 20.0 °F 30.39 in Calm   3.0 mph 68% 0.00 in
16:49 29.2 °F 20.3 °F 30.39 in NNW 2.0 mph 3.0 mph 69% 0.00 in
16:54 29.0 °F 20.1 °F 30.39 in NW 1.0 mph 3.0 mph 69% 0.00 in
16:59 28.8 °F 19.9 °F 30.39 in NNW 1.0 mph 3.0 mph 69% 0.00 in
17:04 28.8 °F 19.9 °F 30.38 in NW 1.0 mph 3.0 mph 69% 0.00 in
17:09 28.8 °F 19.9 °F 30.38 in WNW 1.0 mph 5.0 mph 69% 0.00 in
17:14 28.7 °F 19.8 °F 30.38 in WNW 2.0 mph 4.0 mph 69% 0.00 in
17:19 28.6 °F 19.7 °F 30.38 in WNW 1.0 mph 3.0 mph 69% 0.00 in
17:24 28.6 °F 20.1 °F 30.39 in WNW 2.0 mph 4.0 mph 70% 0.00 in
17:29 28.6 °F 20.1 °F 30.39 in WNW 2.0 mph 4.0 mph 70% 0.00 in
17:34 28.5 °F 20.0 °F 30.38 in West 1.0 mph 4.0 mph 70% 0.00 in
17:39 28.5 °F 20.0 °F 30.38 in Calm   3.0 mph 70% 0.00 in
17:44 28.5 °F 20.0 °F 30.39 in West 1.0 mph 3.0 mph 70% 0.00 in
17:49 28.5 °F 20.3 °F 30.39 in WSW 1.0 mph 4.0 mph 71% 0.00 in
17:54 28.5 °F 20.3 °F 30.39 in WNW 3.0 mph 3.0 mph 71% 0.00 in
17:59 28.4 °F 20.2 °F 30.39 in WNW 2.0 mph 4.0 mph 71% 0.00 in
18:04 28.3 °F 20.4 °F 30.39 in WNW 2.0 mph 5.0 mph 72% 0.00 in
18:09 28.3 °F 20.4 °F 30.39 in West 2.0 mph 5.0 mph 72% 0.00 in
18:14 28.3 °F 20.4 °F 30.39 in West 2.0 mph 5.0 mph 72% 0.00 in
18:19 28.2 °F 20.7 °F 30.38 in West 2.0 mph 4.0 mph 73% 0.00 in
18:24 28.1 °F 20.6 °F 30.39 in WNW 2.0 mph 4.0 mph 73% 0.00 in
18:29 28.0 °F 20.5 °F 30.39 in WNW 2.0 mph 5.0 mph 73% 0.00 in
18:34 27.9 °F 20.4 °F 30.39 in NW 3.0 mph 4.0 mph 73% 0.00 in
18:39 27.6 °F 19.8 °F 30.39 in WNW 2.0 mph 6.0 mph 72% 0.00 in
18:44 27.4 °F 19.6 °F 30.39 in WNW 3.0 mph 5.0 mph 72% 0.00 in
18:49 27.0 °F 19.5 °F 30.39 in WNW 3.0 mph 5.0 mph 73% 0.00 in
18:54 26.9 °F 19.4 °F 30.39 in Calm   4.0 mph 73% 0.00 in
18:59 26.5 °F 19.3 °F 30.39 in NW 2.0 mph 3.0 mph 74% 0.00 in
19:04 26.3 °F 19.1 °F 30.39 in NW 1.0 mph 3.0 mph 74% 0.00 in
19:09 26.1 °F 18.9 °F 30.39 in WNW 1.0 mph 3.0 mph 74% 0.00 in
19:14 25.9 °F 18.7 °F 30.39 in WNW 1.0 mph 3.0 mph 74% 0.00 in
19:19 25.7 °F 18.6 °F 30.39 in Calm   1.0 mph 74% 0.00 in
19:24 25.4 °F 18.6 °F 30.39 in Calm   1.0 mph 75% 0.00 in
19:29 25.3 °F 18.5 °F 30.39 in Calm     75% 0.00 in
19:34 24.8 °F 18.3 °F 30.39 in Calm     76% 0.00 in
19:39 24.7 °F 18.2 °F 30.39 in Calm   2.0 mph 76% 0.00 in
19:44 24.7 °F 18.2 °F 30.39 in WNW 2.0 mph 3.0 mph 76% 0.00 in
19:49 24.6 °F 18.1 °F 30.39 in Calm   4.0 mph 76% 0.00 in
19:54 24.5 °F 18.6 °F 30.39 in Calm   2.0 mph 78% 0.00 in
19:59 24.4 °F 18.5 °F 30.39 in Calm   3.0 mph 78% 0.00 in
20:04 24.3 °F 18.1 °F 30.39 in Calm     77% 0.00 in
20:09 24.1 °F 17.9 °F 30.38 in Calm     77% 0.00 in
20:14 23.9 °F 17.7 °F 30.38 in Calm     77% 0.00 in
20:19 23.5 °F 17.6 °F 30.38 in Calm     78% 0.00 in
20:24 23.3 °F 17.5 °F 30.38 in Calm     78% 0.00 in
20:29 23.0 °F 17.5 °F 30.38 in Calm     79% 0.00 in
20:34 22.8 °F 17.3 °F 30.39 in Calm     79% 0.00 in
20:39 22.9 °F 17.4 °F 30.39 in Calm     79% 0.00 in
20:44 22.8 °F 17.3 °F 30.39 in Calm     79% 0.00 in
20:49 22.6 °F 17.4 °F 30.39 in Calm     80% 0.00 in
20:54 22.7 °F 17.2 °F 30.39 in Calm     79% 0.00 in
20:59 22.5 °F 17.0 °F 30.39 in Calm     79% 0.00 in
21:04 22.2 °F 17.0 °F 30.39 in Calm     80% 0.00 in
21:09 22.0 °F 16.8 °F 30.39 in Calm     80% 0.00 in
21:14 21.6 °F 16.7 °F 30.39 in Calm     81% 0.00 in
21:19 21.8 °F 16.9 °F 30.39 in Calm     81% 0.00 in
21:24 21.6 °F 16.7 °F 30.39 in Calm     81% 0.00 in
21:29 21.6 °F 16.7 °F 30.39 in Calm     81% 0.00 in
21:34 22.0 °F 17.1 °F 30.39 in Calm     81% 0.00 in
21:39 21.9 °F 17.0 °F 30.39 in Calm     81% 0.00 in
21:44 21.9 °F 17.0 °F 30.39 in Calm     81% 0.00 in
21:49 22.0 °F 17.1 °F 30.39 in Calm     81% 0.00 in
21:54 22.2 °F 17.3 °F 30.39 in Calm   3.0 mph 81% 0.00 in
21:59 22.2 °F 17.0 °F 30.39 in Calm   3.0 mph 80% 0.00 in
22:04 21.9 °F 17.0 °F 30.39 in Calm   1.0 mph 81% 0.00 in
22:09 21.9 °F 17.2 °F 30.39 in West 1.0 mph 3.0 mph 82% 0.00 in
22:14 21.9 °F 17.0 °F 30.39 in Calm   2.0 mph 81% 0.00 in
22:19 21.7 °F 16.8 °F 30.39 in Calm   2.0 mph 81% 0.00 in
22:24 21.4 °F 16.8 °F 30.39 in Calm     82% 0.00 in
22:29 21.1 °F 16.5 °F 30.39 in Calm     82% 0.00 in
22:34 20.8 °F 16.5 °F 30.40 in Calm     83% 0.00 in
22:39 20.9 °F 16.5 °F 30.40 in Calm   1.0 mph 83% 0.00 in
22:44 21.1 °F 16.7 °F 30.40 in Calm     83% 0.00 in
22:49 21.2 °F 16.8 °F 30.40 in Calm   1.0 mph 83% 0.00 in
22:54 22.0 °F 17.9 °F 30.40 in Calm   3.0 mph 84% 0.00 in
22:59 22.7 °F 18.3 °F 30.40 in West 1.0 mph 4.0 mph 83% 0.00 in
23:04 23.3 °F 18.6 °F 30.40 in West 1.0 mph 4.0 mph 82% 0.00 in
23:09 23.5 °F 18.5 °F 30.40 in West 1.0 mph 3.0 mph 81% 0.00 in
23:14 23.6 °F 18.3 °F 30.40 in West 2.0 mph 3.0 mph 80% 0.00 in
23:19 23.7 °F 18.4 °F 30.40 in West 1.0 mph 4.0 mph 80% 0.00 in
23:24 23.7 °F 18.4 °F 30.40 in WSW 2.0 mph 3.0 mph 80% 0.00 in
23:29 24.0 °F 18.4 °F 30.40 in WSW 2.0 mph 6.0 mph 79% 0.00 in
23:34 24.4 °F 18.5 °F 30.40 in WSW 5.0 mph 7.0 mph 78% 0.00 in
23:39 24.6 °F 18.7 °F 30.40 in SW 4.0 mph 5.0 mph 78% 0.00 in
23:44 24.8 °F 18.6 °F 30.40 in West 1.0 mph 7.0 mph 77% 0.00 in
23:49 24.9 °F 18.7 °F 30.40 in West 2.0 mph 5.0 mph 77% 0.00 in
23:54 24.9 °F 18.7 °F 30.40 in West 3.0 mph 6.0 mph 77% 0.00 in
23:59 24.9 °F 18.7 °F 30.40 in West 3.0 mph 6.0 mph 77% 0.00 in
Buffalo, New York, USA
Compliments of Weather Underground - 2.5 mb